createdAt,value
2019-04-19T00:00:13.984Z,61.38
2019-04-19T00:05:09.435Z,61.66
2019-04-19T00:10:23.742Z,61.38
2019-04-19T00:15:06.024Z,61.47
2019-04-19T00:20:26.758Z,61.28
2019-04-19T00:25:02.746Z,61.85
2019-04-19T00:30:08.149Z,61.95
2019-04-19T00:34:58.747Z,62.68
2019-04-19T00:40:11.913Z,62.40
2019-04-19T00:45:16.277Z,62.11
2019-04-19T00:50:09.913Z,62.87
2019-04-19T00:55:04.693Z,62.78
2019-04-19T00:59:55.284Z,63.26
2019-04-19T01:04:57.238Z,63.35
2019-04-19T01:10:09.833Z,64.50
2019-04-19T01:15:06.921Z,65.14
2019-04-19T01:19:55.743Z,64.85
2019-04-19T01:24:50.091Z,65.33
2019-04-19T01:29:51.715Z,65.90
2019-04-19T01:34:57.935Z,66.72
2019-04-19T01:40:04.505Z,67.01
2019-04-19T01:45:00.869Z,66.92
2019-04-19T01:49:58.820Z,66.72
2019-04-19T01:54:57.701Z,67.21
2019-04-19T01:59:48.890Z,67.21
2019-04-19T02:04:44.033Z,68.16
2019-04-19T02:09:56.559Z,68.32
2019-04-19T02:14:51.636Z,67.97
2019-04-19T02:19:47.904Z,68.44
2019-04-19T02:24:44.088Z,68.60
2019-04-19T02:29:38.593Z,68.32
2019-04-19T02:35:04.269Z,68.22
2019-04-19T03:00:04.508Z,70.61
2019-04-19T03:09:35.704Z,70.70
2019-04-19T03:14:45.230Z,70.03
2019-04-19T03:19:44.220Z,71.27
2019-04-19T03:24:47.794Z,70.79
2019-04-19T03:29:35.207Z,71.23
2019-04-19T03:34:57.413Z,71.91
2019-04-19T03:39:43.982Z,72.19
2019-04-19T03:44:42.956Z,71.91
2019-04-19T03:49:57.983Z,72.19
2019-04-19T03:54:39.153Z,73.43
2019-04-19T03:59:24.475Z,73.14
2019-04-19T04:04:24.049Z,73.62
2019-04-19T04:09:18.816Z,73.91
2019-04-19T04:14:27.905Z,73.49
2019-04-19T04:19:14.523Z,74.44
2019-04-19T04:24:20.764Z,74.82
2019-04-19T04:29:19.224Z,74.63
2019-04-19T04:34:23.108Z,75.49
2019-04-19T04:39:11.254Z,76.16
2019-04-19T04:44:23.434Z,75.30
2019-04-19T04:49:34.513Z,76.25
2019-04-19T04:54:06.415Z,76.25
2019-04-19T04:59:06.382Z,76.16
2019-04-19T05:04:15.160Z,75.96
2019-04-19T05:09:22.999Z,76.82
2019-04-19T05:14:17.574Z,76.06
2019-04-19T05:24:19.057Z,76.10
2019-04-19T05:29:11.125Z,74.67
2019-04-19T05:34:14.961Z,73.72
2019-04-19T05:39:17.283Z,73.43
2019-04-19T05:49:10.272Z,72.51
2019-04-19T05:53:58.284Z,71.56
2019-04-19T05:59:03.780Z,71.75
2019-04-19T06:04:12.092Z,71.02
2019-04-19T06:08:54.069Z,71.41
2019-04-19T06:14:12.677Z,70.36
2019-04-19T06:19:08.668Z,70.67
2019-04-19T06:24:15.171Z,69.09
2019-04-19T06:29:10.048Z,68.90
2019-04-19T06:34:10.302Z,68.41
2019-04-19T06:38:52.765Z,68.23
2019-04-19T06:44:00.371Z,67.97
2019-04-19T06:48:59.064Z,67.02
2019-04-19T06:53:55.581Z,67.88
2019-04-19T06:59:01.152Z,68.10
2019-04-19T07:03:49.483Z,66.86
2019-04-19T07:13:53.317Z,65.94
2019-04-19T07:18:58.387Z,65.65
2019-04-19T07:28:45.278Z,62.84
2019-04-19T07:33:53.145Z,60.76
2019-04-19T07:39:03.551Z,60.31
2019-04-19T07:43:54.452Z,59.16
2019-04-19T07:48:40.728Z,60.60
2019-04-19T07:53:41.280Z,59.06
2019-04-19T07:58:58.446Z,59.58
2019-04-19T08:04:27.360Z,57.14
2019-04-19T08:09:02.509Z,54.99
2019-04-19T08:28:47.527Z,50.35
2019-04-19T08:33:41.423Z,51.60
2019-04-19T08:38:46.630Z,51.38
2019-04-19T08:43:54.663Z,53.09
2019-04-19T08:48:45.553Z,54.14
2019-04-19T08:53:46.020Z,52.99
2019-04-19T08:58:53.455Z,53.38
2019-04-19T09:04:05.130Z,52.70
2019-04-19T09:08:50.469Z,52.99
2019-04-19T09:13:55.761Z,53.47
2019-04-19T09:18:55.706Z,53.38
2019-04-19T09:23:43.751Z,52.83
2019-04-19T09:28:48.774Z,52.15
2019-04-19T09:33:34.684Z,50.45
2019-04-19T09:38:43.228Z,50.76
2019-04-19T09:43:42.376Z,47.58
2019-04-19T09:48:46.405Z,46.83
2019-04-19T09:53:55.769Z,46.06
2019-04-19T09:58:43.158Z,45.00
2019-04-19T10:03:38.270Z,43.75
2019-04-19T10:08:28.105Z,44.06
2019-04-19T10:13:27.958Z,42.44
2019-04-19T10:18:24.916Z,40.80
2019-04-19T10:23:23.010Z,41.40
2019-04-19T10:28:23.343Z,40.96
2019-04-19T10:33:29.692Z,39.53
2019-04-19T10:38:19.987Z,40.19
2019-04-19T10:43:16.902Z,39.51
2019-04-19T10:48:13.807Z,39.04
2019-04-19T10:53:10.396Z,38.60
2019-04-19T10:58:07.394Z,34.12
2019-04-19T11:03:03.536Z,33.25
2019-04-19T11:07:59.525Z,33.83
2019-04-19T11:12:56.550Z,33.94
2019-04-19T11:17:53.765Z,33.36
2019-04-19T11:22:50.668Z,30.93
2019-04-19T11:27:49.933Z,31.99
2019-04-19T11:32:46.506Z,33.44
2019-04-19T11:37:43.258Z,32.21
2019-04-19T11:42:41.385Z,32.52
2019-04-19T11:47:37.619Z,32.14
2019-04-19T11:52:35.651Z,32.23
2019-04-19T11:57:32.603Z,32.81
2019-04-19T12:02:29.127Z,33.97
2019-04-19T12:07:26.269Z,32.89
2019-04-19T12:12:23.274Z,33.57
2019-04-19T12:17:18.229Z,32.57
2019-04-19T12:22:14.890Z,34.02
2019-04-19T12:27:10.052Z,35.95
2019-04-19T12:32:05.681Z,33.36
2019-04-19T12:37:02.200Z,35.08
2019-04-19T12:41:57.831Z,36.82
2019-04-19T12:46:55.080Z,36.34
2019-04-19T12:51:52.200Z,35.57
2019-04-19T12:56:49.798Z,34.79
2019-04-19T13:01:46.005Z,34.81
2019-04-19T13:06:43.865Z,34.68
2019-04-19T13:11:38.933Z,35.94
2019-04-19T13:16:34.584Z,34.58
2019-04-19T13:21:30.326Z,34.48
2019-04-19T13:26:27.401Z,35.74
2019-04-19T13:31:23.008Z,35.34
2019-04-19T13:36:19.840Z,36.13
2019-04-19T13:41:15.197Z,34.68
2019-04-19T13:46:11.219Z,34.97
2019-04-19T13:51:08.749Z,34.86
2019-04-19T13:56:04.563Z,35.84
2019-04-19T14:01:00.642Z,34.87
2019-04-19T14:05:56.739Z,35.36
2019-04-19T14:10:55.062Z,35.06
2019-04-19T14:15:53.179Z,34.79
2019-04-19T14:20:52.269Z,34.79
2019-04-19T14:25:47.806Z,34.97
2019-04-19T14:30:45.166Z,35.95
2019-04-19T14:35:41.880Z,36.34
2019-04-19T14:40:39.701Z,35.84
2019-04-19T14:45:35.029Z,36.71
2019-04-19T14:50:42.624Z,36.61
2019-04-19T14:55:32.074Z,36.03
2019-04-19T15:00:27.377Z,36.80
2019-04-19T15:05:25.584Z,36.61
2019-04-19T15:10:21.820Z,36.32
2019-04-19T15:15:18.971Z,37.29
2019-04-19T15:20:14.207Z,38.25
2019-04-19T15:25:10.870Z,37.77
2019-04-19T15:30:07.304Z,37.75
2019-04-19T15:35:03.621Z,37.17
2019-04-19T15:40:00.671Z,37.95
2019-04-19T15:44:56.171Z,38.64
2019-04-19T15:49:53.718Z,38.43
2019-04-19T15:54:50.078Z,37.85
2019-04-19T15:59:46.135Z,38.04
2019-04-19T16:04:44.029Z,36.88
2019-04-19T16:09:41.880Z,36.21
2019-04-19T16:14:37.864Z,36.79
2019-04-19T16:19:34.438Z,38.14
2019-04-19T16:24:31.307Z,38.23
2019-04-19T16:29:35.532Z,38.53
2019-04-19T16:34:27.193Z,40.07
2019-04-19T16:39:27.693Z,40.55
2019-04-19T16:44:23.572Z,40.24
2019-04-19T16:49:20.443Z,40.36
2019-04-19T16:54:16.512Z,40.17
2019-04-19T16:59:12.179Z,39.95
2019-04-19T17:04:09.380Z,39.57
2019-04-19T17:09:04.949Z,39.66
2019-04-19T17:14:02.782Z,40.82
2019-04-19T17:18:59.090Z,40.72
2019-04-19T17:23:55.281Z,40.63
2019-04-19T17:28:50.851Z,40.51
2019-04-19T17:33:48.271Z,40.61
2019-04-19T17:38:46.904Z,41.67
2019-04-19T17:43:43.703Z,41.28
2019-04-19T17:48:40.888Z,40.59
2019-04-19T17:53:42.129Z,40.78
2019-04-19T17:58:36.333Z,40.78
2019-04-19T18:03:33.191Z,41.27
2019-04-19T18:08:32.558Z,42.80
2019-04-19T18:13:29.439Z,46.25
2019-04-19T18:18:39.142Z,48.57
2019-04-19T18:23:42.393Z,49.99
2019-04-19T18:28:38.378Z,52.11
2019-04-19T18:33:32.199Z,52.87
2019-04-19T18:38:31.022Z,53.65
2019-04-19T18:43:39.651Z,54.10
2019-04-19T18:48:27.259Z,54.87
2019-04-19T18:53:34.520Z,55.62
2019-04-19T18:58:26.715Z,55.62
2019-04-19T19:03:22.069Z,56.10
2019-04-19T19:08:25.785Z,56.26
2019-04-19T19:13:27.675Z,56.36
2019-04-19T19:18:17.595Z,56.36
2019-04-19T19:23:25.654Z,56.52
2019-04-19T19:28:13.837Z,57.87
2019-04-19T19:33:15.345Z,58.45
2019-04-19T19:38:16.294Z,58.83
2019-04-19T19:43:29.365Z,59.19
2019-04-19T19:48:28.366Z,59.76
2019-04-19T19:53:44.489Z,60.63
2019-04-19T19:58:18.426Z,61.08
2019-04-19T20:03:13.443Z,61.75
2019-04-19T20:08:07.883Z,61.36
2019-04-19T20:13:08.877Z,62.04
2019-04-19T20:18:03.623Z,61.65
2019-04-19T20:23:00.295Z,61.33
2019-04-19T20:28:01.182Z,62.10
2019-04-19T20:33:00.642Z,61.81
2019-04-19T20:37:59.348Z,61.72
2019-04-19T20:43:17.711Z,60.75
2019-04-19T20:47:56.386Z,60.95
2019-04-19T20:53:05.946Z,60.63
2019-04-19T20:58:02.375Z,61.02
2019-04-19T21:02:51.956Z,61.02
2019-04-19T21:07:53.950Z,61.98
2019-04-19T21:12:49.620Z,61.30
2019-04-19T21:17:48.455Z,61.69
2019-04-19T21:22:44.400Z,62.62
2019-04-19T21:27:47.074Z,61.75
2019-04-19T21:32:40.612Z,61.85
2019-04-19T21:37:42.362Z,61.75
2019-04-19T21:42:41.678Z,62.90
2019-04-19T21:47:42.889Z,62.13
2019-04-19T21:52:36.088Z,63.26
2019-04-19T21:57:34.455Z,62.49
2019-04-19T22:02:36.847Z,62.30
2019-04-19T22:07:38.119Z,62.20
2019-04-19T22:12:30.382Z,62.20
2019-04-19T22:17:27.247Z,63.73
2019-04-19T22:22:28.439Z,63.54
2019-04-19T22:27:23.244Z,63.92
2019-04-19T22:32:20.588Z,64.47
2019-04-19T22:37:24.710Z,63.80
2019-04-19T22:42:17.073Z,63.70
2019-04-19T22:47:17.472Z,64.09
2019-04-19T22:52:14.295Z,64.66
2019-04-19T22:57:16.073Z,65.14
2019-04-19T23:02:10.524Z,66.00
2019-04-19T23:07:09.476Z,64.76
2019-04-19T23:12:05.027Z,64.63
2019-04-19T23:17:02.234Z,66.19
2019-04-19T23:21:59.986Z,66.45
2019-04-19T23:27:10.732Z,64.82
2019-04-19T23:31:56.034Z,64.05
2019-04-19T23:37:00.920Z,65.39
2019-04-19T23:41:51.635Z,66.25
2019-04-19T23:46:47.515Z,64.92
2019-04-19T23:51:43.281Z,65.11
2019-04-19T23:56:53.968Z,64.69
